KHTS/HTS METAR and TAF weather

Enter ICAO airport designator
Station Type Date Time Source
KHTS METAR 2020/08/05 23:51 UTC NOAA

KHTS 052351Z 02005KT 10SM SCT047 OVC055 25/17 A3005 RMK AO2 SLP170 T02500172 10283 20250 55004


Station Type Date Time Source
KHTS Decoded METAR 2020/08/05 23:51 UTC NOAA

TRI-STATE AIRPORT, WV, United States (KHTS) 38-22N 082-33W 254M
Aug 05, 2020 - 07:51 PM EDT / 2020.08.05 2351 UTC
Wind: from the NNE (020 degrees) at 6 MPH (5 KT):0
Visibility: 10 mile(s):0
Sky conditions: overcast
Temperature: 77.0 F (25.0 C)
Dew Point: 63.0 F (17.2 C)
Relative Humidity: 61%
Pressure (altimeter): 30.05 in. Hg (1017 hPa)
Pressure tendency: 0.01 inches (0.4 hPa) lower than three hours ago
ob: KHTS 052351Z 02005KT 10SM SCT047 OVC055 25/17 A3005 RMK AO2 SLP170 T02500172 10283 20250 55004
cycle: 0

Station Type Date Time Source
KHTS TAF 2020/08/05 21:51 UTC NOAA

TAF
AMD KHTS 052048Z 0521/0618 VRB03KT P6SM FEW025
FM052200 VRB03KT P6SM FEW045
FM060200 VRB03KT P6SM FEW060
FM061100 02002KT 4SM BR OVC100
FM061300 00000KT P6SM BKN100

Example: see airport list